Terminal Aerodrome Forecast
Issued by NWS

Home | Current Version | Previous Version | Text Only | Print | Product List | Glossary On
Versions: 1 2 3 4 5 6 7 8 9 10 11 12 13 14 15 16 17 18 19
000
FTAK31 PAJN 152300
TAFAPG
TAF
PAPG 152321Z 1600/1624 06005KT P6SM FEW010 FEW040
     FM160200 VRB03KT P6SM BKN100
     FM160900 00000KT P6SM BCFG SCT005 BKN100
     FM161200 00000KT 1/2SM FG OVC002
     FM161800 04002KT 5SM BR SCT005 OVC015
      AMD LTD TO CLD VIS AND WIND 1606/1615=

USA.gov is the U.S. government's official web portal to all federal, state and local government web resources and services.